Time;durP1;ratioP1;P1;durP2;ratioP2;P2;SDS_P1;SDS_P2;PMS_P1;PMS_P2;Temp;Humidity;BMP_temperature;BMP_pressure;BME280_temperature;BME280_humidity;BME280_pressure;Samples;Min_cycle;Max_cycle;Signal;HPM_P1;HPM_P2
2021/10/14 00:00:11;;;;;;;8.43;1.83;;;22.40;99.90;;;;;;5087405;28;20284;-74
2021/10/14 00:02:39;;;;;;;6.87;2.00;;;22.70;99.90;;;;;;5092857;28;20190;-76
2021/10/14 00:05:07;;;;;;;9.93;2.07;;;22.60;99.90;;;;;;5092896;28;20205;-75
2021/10/14 00:07:34;;;;;;;13.30;2.50;;;22.40;99.90;;;;;;5091736;28;20182;-74
2021/10/14 00:10:01;;;;;;;11.20;1.70;;;22.10;99.90;;;;;;5091295;28;20185;-74
2021/10/14 00:12:28;;;;;;;13.37;2.50;;;22.20;99.90;;;;;;5091930;28;20230;-74
2021/10/14 00:14:56;;;;;;;3.97;1.50;;;22.40;99.90;;;;;;5091725;28;20190;-75
2021/10/14 00:17:25;;;;;;;11.20;1.80;;;22.50;99.90;;;;;;5092793;28;20261;-78
2021/10/14 00:19:52;;;;;;;5.17;1.70;;;22.60;99.90;;;;;;5092625;28;20313;-75
2021/10/14 00:22:19;;;;;;;8.17;1.70;;;22.70;99.90;;;;;;5092542;28;20585;-74
2021/10/14 00:24:47;;;;;;;7.47;1.70;;;22.50;99.90;;;;;;5092419;28;20520;-73
2021/10/14 00:27:14;;;;;;;6.97;1.50;;;22.60;99.90;;;;;;5092324;28;20186;-76
2021/10/14 00:29:41;;;;;;;10.53;1.80;;;22.80;99.90;;;;;;5091872;28;20235;-78
2021/10/14 00:32:09;;;;;;;8.03;1.67;;;22.70;99.90;;;;;;5091582;28;20167;-74
2021/10/14 00:34:36;;;;;;;9.13;2.20;;;22.70;99.90;;;;;;5092380;28;20174;-75
2021/10/14 00:37:03;;;;;;;9.70;2.00;;;22.80;99.90;;;;;;5091437;28;20546;-74
2021/10/14 00:39:31;;;;;;;15.87;2.57;;;22.80;99.90;;;;;;5090355;28;20521;-74
2021/10/14 00:41:58;;;;;;;11.43;1.83;;;23.20;99.90;;;;;;5092134;28;20178;-75
2021/10/14 00:44:26;;;;;;;8.40;1.97;;;23.50;99.90;;;;;;5072312;28;20184;-74
2021/10/14 00:46:55;;;;;;;10.73;2.07;;;23.60;99.90;;;;;;5090614;28;20213;-75
2021/10/14 00:49:23;;;;;;;14.17;2.87;;;23.70;99.90;;;;;;5080696;28;20268;-74
2021/10/14 00:51:50;;;;;;;11.03;2.13;;;23.40;99.90;;;;;;5092286;28;20209;-75
2021/10/14 00:54:20;;;;;;;10.97;2.40;;;23.50;99.90;;;;;;5092099;28;20220;-74
2021/10/14 00:56:47;;;;;;;7.87;2.17;;;23.60;99.90;;;;;;5091723;28;20174;-74
2021/10/14 00:59:15;;;;;;;12.00;2.33;;;23.60;99.90;;;;;;5092540;28;20201;-75
2021/10/14 01:01:43;;;;;;;10.83;2.30;;;23.50;99.90;;;;;;5092044;28;20247;-75
2021/10/14 01:04:10;;;;;;;12.07;2.50;;;23.50;99.90;;;;;;5092259;28;20245;-75
2021/10/14 01:06:37;;;;;;;12.67;2.57;;;23.60;99.90;;;;;;5092097;28;20295;-74
2021/10/14 01:09:05;;;;;;;8.40;2.10;;;24.10;99.90;;;;;;5091821;28;20204;-77
2021/10/14 01:11:32;;;;;;;11.13;2.17;;;24.20;99.90;;;;;;5090721;28;20210;-72
2021/10/14 01:14:00;;;;;;;10.83;1.77;;;24.20;99.90;;;;;;5092016;28;20740;-76
2021/10/14 01:16:27;;;;;;;8.00;1.87;;;24.30;99.90;;;;;;5092122;28;20166;-76
2021/10/14 01:18:54;;;;;;;13.50;2.30;;;24.30;99.90;;;;;;5092331;28;20691;-75
2021/10/14 01:21:22;;;;;;;6.87;1.90;;;24.40;99.90;;;;;;5092150;28;20171;-75
2021/10/14 01:23:50;;;;;;;10.23;2.30;;;24.20;99.90;;;;;;5091995;28;20171;-76
2021/10/14 01:26:17;;;;;;;6.83;2.10;;;24.30;99.90;;;;;;5092864;28;20218;-72
2021/10/14 01:28:44;;;;;;;12.70;1.50;;;24.00;99.90;;;;;;5095719;28;20171;-77
2021/10/14 01:31:12;;;;;;;9.10;1.77;;;24.10;99.90;;;;;;5087428;28;20194;-77
2021/10/14 01:33:39;;;;;;;13.07;1.83;;;24.10;99.90;;;;;;5075704;28;20180;-75
2021/10/14 01:36:06;;;;;;;7.00;1.40;;;24.00;99.90;;;;;;5095378;28;20192;-75
2021/10/14 01:38:34;;;;;;;7.10;1.43;;;24.20;99.90;;;;;;5096091;28;20529;-76
2021/10/14 01:41:01;;;;;;;7.90;1.87;;;24.60;99.90;;;;;;5095629;28;20193;-73
2021/10/14 01:43:29;;;;;;;7.37;2.00;;;24.70;99.90;;;;;;5095971;28;20163;-75
2021/10/14 01:45:56;;;;;;;8.97;1.53;;;25.00;99.90;;;;;;5093991;28;20215;-73
2021/10/14 01:48:24;;;;;;;5.33;2.00;;;24.90;99.90;;;;;;5086780;28;20186;-72
2021/10/14 01:50:51;;;;;;;9.00;2.20;;;24.90;99.90;;;;;;5080986;28;20258;-76
2021/10/14 01:53:18;;;;;;;7.33;2.07;;;25.00;99.90;;;;;;5094583;28;20625;-76
2021/10/14 01:55:46;;;;;;;9.67;2.17;;;25.20;99.90;;;;;;5094032;28;20617;-75
2021/10/14 01:58:13;;;;;;;9.77;2.47;;;25.10;99.90;;;;;;5086428;28;20179;-75
2021/10/14 02:00:42;;;;;;;10.57;2.13;;;24.70;99.90;;;;;;5073790;28;20171;-73
2021/10/14 02:03:10;;;;;;;7.90;2.27;;;24.50;99.90;;;;;;5090397;28;20662;-74
2021/10/14 02:05:37;;;;;;;11.23;2.27;;;24.30;99.90;;;;;;5091986;28;20219;-76
2021/10/14 02:08:05;;;;;;;7.67;1.80;;;24.30;99.90;;;;;;5086694;28;20171;-74
2021/10/14 02:10:32;;;;;;;8.77;1.60;;;24.30;99.90;;;;;;5099506;28;20533;-75
2021/10/14 02:13:00;;;;;;;10.57;1.60;;;24.70;99.90;;;;;;5079110;28;20258;-74
2021/10/14 02:15:27;;;;;;;9.87;2.20;;;24.60;99.90;;;;;;5087534;28;20543;-73
2021/10/14 02:17:55;;;;;;;9.87;1.97;;;24.80;99.90;;;;;;5094942;28;20178;-76
2021/10/14 02:20:23;;;;;;;12.23;2.00;;;24.80;99.90;;;;;;5094760;28;20189;-74
2021/10/14 02:22:50;;;;;;;10.90;2.77;;;24.80;99.90;;;;;;5094956;28;20175;-75
2021/10/14 02:25:20;;;;;;;11.70;2.13;;;24.70;99.90;;;;;;5086817;28;20293;-76
2021/10/14 02:27:47;;;;;;;10.17;2.60;;;24.80;99.90;;;;;;5094604;28;20175;-74
2021/10/14 02:30:15;;;;;;;7.77;1.53;;;25.10;99.90;;;;;;5094740;28;20181;-75
2021/10/14 02:32:43;;;;;;;14.03;2.20;;;25.20;99.90;;;;;;5094739;28;20311;-73
2021/10/14 02:35:10;;;;;;;16.17;2.10;;;25.10;99.90;;;;;;5094815;28;20167;-75
2021/10/14 02:37:38;;;;;;;12.20;3.00;;;25.30;99.90;;;;;;5093841;28;20178;-74
2021/10/14 02:40:06;;;;;;;7.87;2.30;;;25.10;99.90;;;;;;5091780;28;20203;-72
2021/10/14 02:42:34;;;;;;;11.77;2.40;;;25.60;99.90;;;;;;5088833;28;20638;-79
2021/10/14 02:45:02;;;;;;;10.23;2.03;;;25.70;99.90;;;;;;5093274;28;20554;-75
2021/10/14 02:47:29;;;;;;;12.70;2.37;;;25.60;99.90;;;;;;5088345;28;20281;-73
2021/10/14 02:49:56;;;;;;;17.47;2.53;;;25.40;99.90;;;;;;5081630;28;20179;-74
2021/10/14 02:52:24;;;;;;;8.10;2.07;;;25.90;99.90;;;;;;5081492;28;20536;-76
2021/10/14 02:54:51;;;;;;;15.03;2.93;;;25.90;99.90;;;;;;5089323;28;20264;-75
2021/10/14 02:57:18;;;;;;;17.03;3.60;;;26.00;99.90;;;;;;5089978;28;20245;-76
2021/10/14 02:59:46;;;;;;;16.70;2.63;;;25.90;99.90;;;;;;5092995;28;20266;-75
2021/10/14 03:02:13;;;;;;;12.00;2.80;;;25.40;99.90;;;;;;5092537;28;20509;-74
2021/10/14 03:04:40;;;;;;;18.73;3.20;;;25.20;99.90;;;;;;5093828;28;20183;-74
2021/10/14 03:07:08;;;;;;;18.97;3.23;;;25.30;99.90;;;;;;5094205;28;20218;-75
2021/10/14 03:09:35;;;;;;;17.20;3.40;;;25.30;99.90;;;;;;5093105;28;20259;-76
2021/10/14 03:12:03;;;;;;;18.87;3.53;;;25.60;99.90;;;;;;5093724;28;20396;-75
2021/10/14 03:14:30;;;;;;;14.93;3.30;;;26.00;99.90;;;;;;5091789;28;20637;-74
2021/10/14 03:16:57;;;;;;;17.50;3.47;;;25.90;99.90;;;;;;5091106;28;20282;-74
2021/10/14 03:19:24;;;;;;;14.30;2.97;;;26.10;99.90;;;;;;5094058;28;20171;-76
2021/10/14 03:21:52;;;;;;;13.57;2.83;;;25.70;99.90;;;;;;5093513;28;20186;-76
2021/10/14 03:24:19;;;;;;;12.97;3.07;;;25.80;99.90;;;;;;5093439;28;20249;-78
2021/10/14 03:26:46;;;;;;;16.67;2.90;;;25.60;99.90;;;;;;5093265;28;20305;-75
2021/10/14 03:29:14;;;;;;;19.20;3.57;;;25.40;99.90;;;;;;5093733;28;20583;-77
2021/10/14 03:31:41;;;;;;;17.53;3.17;;;24.80;99.90;;;;;;5093696;28;20198;-77
2021/10/14 03:34:08;;;;;;;14.50;3.20;;;24.30;99.90;;;;;;5093312;28;20190;-75
2021/10/14 03:36:36;;;;;;;22.93;4.67;;;23.80;99.90;;;;;;5093548;28;20174;-76
2021/10/14 03:39:03;;;;;;;15.60;3.27;;;23.50;99.90;;;;;;5087332;28;20186;-78
2021/10/14 03:41:31;;;;;;;16.13;4.00;;;23.50;99.90;;;;;;5093419;28;20187;-75
2021/10/14 03:43:58;;;;;;;24.83;3.10;;;23.50;99.90;;;;;;5083583;28;20600;-77
2021/10/14 03:46:25;;;;;;;19.70;3.60;;;23.50;99.90;;;;;;5075533;28;20214;-73
2021/10/14 03:48:53;;;;;;;15.83;3.53;;;23.70;99.90;;;;;;5089319;28;20581;-74
2021/10/14 03:51:20;;;;;;;15.90;2.93;;;23.40;99.90;;;;;;5090925;28;20185;-74
2021/10/14 03:53:47;;;;;;;23.20;4.00;;;23.40;99.90;;;;;;5091878;28;20270;-73
2021/10/14 03:56:15;;;;;;;24.43;3.90;;;23.00;99.90;;;;;;5091128;28;20209;-74
2021/10/14 03:58:42;;;;;;;15.90;3.97;;;22.70;99.90;;;;;;5088723;28;20596;-74
2021/10/14 04:01:13;;;;;;;14.87;3.87;;;22.60;99.90;;;;;;5072588;28;20190;-73
2021/10/14 04:03:40;;;;;;;28.50;4.47;;;22.40;99.90;;;;;;5072328;28;20178;-74
2021/10/14 04:06:07;;;;;;;23.73;4.30;;;22.20;99.90;;;;;;5083261;28;20214;-73
2021/10/14 04:08:35;;;;;;;19.83;3.97;;;22.10;99.90;;;;;;5086586;28;20175;-75
2021/10/14 04:11:03;;;;;;;22.53;3.97;;;22.10;99.90;;;;;;5079120;28;20278;-75
2021/10/14 04:13:31;;;;;;;20.67;4.27;;;22.10;99.90;;;;;;5095967;28;20214;-74
2021/10/14 04:15:58;;;;;;;19.77;4.17;;;21.80;99.90;;;;;;5087343;28;20333;-74
2021/10/14 04:18:25;;;;;;;27.67;6.47;;;21.80;99.90;;;;;;5087984;28;20253;-72
2021/10/14 04:20:53;;;;;;;22.47;4.10;;;21.90;99.90;;;;;;5099927;28;20178;-73
2021/10/14 04:23:20;;;;;;;26.20;4.77;;;21.90;99.90;;;;;;5091327;28;20214;-76
2021/10/14 04:25:48;;;;;;;28.20;3.73;;;21.80;99.90;;;;;;5073837;28;20707;-76
2021/10/14 04:28:15;;;;;;;22.20;3.83;;;21.60;99.90;;;;;;5076712;28;20649;-80
2021/10/14 04:30:46;;;;;;;38.50;4.70;;;21.60;99.90;;;;;;5087421;28;20194;-73
2021/10/14 04:33:14;;;;;;;23.90;4.40;;;21.50;99.90;;;;;;5091880;28;20543;-75
2021/10/14 04:35:41;;;;;;;28.53;5.03;;;21.40;99.90;;;;;;5074996;28;20243;-74
2021/10/14 04:38:08;;;;;;;28.40;5.13;;;21.30;99.90;;;;;;5073292;28;20178;-73
2021/10/14 04:40:36;;;;;;;30.70;4.40;;;21.20;99.90;;;;;;5072418;28;20220;-74
2021/10/14 04:43:03;;;;;;;23.13;4.50;;;21.10;99.90;;;;;;5090957;28;20213;-73
2021/10/14 04:45:31;;;;;;;21.43;4.23;;;21.00;99.90;;;;;;5092560;28;20218;-73
2021/10/14 04:47:58;;;;;;;26.67;4.57;;;20.90;99.90;;;;;;5092292;28;20179;-77
2021/10/14 04:50:25;;;;;;;26.20;4.77;;;20.70;99.90;;;;;;5092576;28;20174;-79
2021/10/14 04:52:53;;;;;;;32.87;6.17;;;20.70;99.90;;;;;;5092535;28;20166;-79
2021/10/14 04:55:20;;;;;;;38.23;6.27;;;20.60;99.90;;;;;;5092142;28;20227;-72
2021/10/14 04:57:48;;;;;;;29.33;5.77;;;20.60;99.90;;;;;;5092034;28;20209;-74
2021/10/14 05:00:15;;;;;;;43.13;5.10;;;20.30;99.90;;;;;;5092745;28;20273;-73
2021/10/14 05:02:43;;;;;;;38.83;6.00;;;20.20;99.90;;;;;;5096513;28;20178;-75
2021/10/14 05:05:10;;;;;;;44.37;6.70;;;20.00;99.90;;;;;;5096772;28;20221;-73
2021/10/14 05:07:38;;;;;;;44.27;6.70;;;19.90;99.90;;;;;;5102841;28;20249;-75
2021/10/14 05:10:05;;;;;;;37.13;5.97;;;19.80;99.90;;;;;;5104765;28;20170;-76
2021/10/14 05:12:34;;;;;;;44.73;6.00;;;19.80;99.90;;;;;;5096245;28;20220;-73
2021/10/14 05:15:05;;;;;;;34.10;5.60;;;19.70;99.90;;;;;;5096260;28;20187;-75
2021/10/14 05:17:32;;;;;;;41.63;7.03;;;19.70;99.90;;;;;;5095181;28;20244;-76
2021/10/14 05:20:00;;;;;;;41.93;6.43;;;19.70;99.90;;;;;;5092461;28;20252;-71
2021/10/14 05:22:28;;;;;;;36.87;5.87;;;19.70;99.90;;;;;;5091053;28;20182;-75
2021/10/14 05:24:55;;;;;;;44.10;7.07;;;19.70;99.90;;;;;;5088664;28;20218;-79
2021/10/14 05:27:23;;;;;;;42.07;6.10;;;19.70;99.90;;;;;;5082949;28;20183;-72
2021/10/14 05:29:50;;;;;;;35.07;5.47;;;19.70;99.90;;;;;;5085626;28;20541;-78
2021/10/14 05:32:18;;;;;;;50.80;7.00;;;19.60;99.90;;;;;;5087022;28;20217;-77
2021/10/14 05:34:45;;;;;;;44.03;6.93;;;19.70;99.90;;;;;;5094938;28;20206;-72
2021/10/14 05:37:12;;;;;;;44.40;6.57;;;19.70;99.90;;;;;;5093924;28;20190;-72
2021/10/14 05:39:40;;;;;;;52.27;6.90;;;19.60;99.90;;;;;;5095023;28;20227;-76
2021/10/14 05:42:07;;;;;;;33.43;6.77;;;19.70;99.90;;;;;;5093574;28;20186;-76
2021/10/14 05:44:35;;;;;;;30.90;6.30;;;19.60;99.90;;;;;;5095333;28;20186;-78
2021/10/14 05:47:02;;;;;;;40.00;6.13;;;19.60;99.90;;;;;;5085583;28;20309;-70
2021/10/14 05:49:30;;;;;;;26.43;5.53;;;19.70;99.90;;;;;;5092139;28;20633;-70
2021/10/14 05:51:57;;;;;;;43.50;7.23;;;19.60;99.90;;;;;;5089949;28;20175;-73
2021/10/14 05:54:24;;;;;;;32.43;5.90;;;19.70;99.90;;;;;;5085916;28;20187;-73
2021/10/14 05:56:52;;;;;;;33.00;6.13;;;19.60;99.90;;;;;;5087043;28;20224;-72
2021/10/14 05:59:19;;;;;;;11.90;2.43;;;19.70;99.90;;;;;;5095174;28;20255;-71
2021/10/14 06:01:47;;;;;;;20.33;3.70;;;19.50;99.90;;;;;;5095197;28;20190;-76
2021/10/14 06:04:14;;;;;;;29.70;3.97;;;19.80;99.90;;;;;;5095304;28;20269;-71
2021/10/14 06:06:41;;;;;;;17.63;3.20;;;19.90;99.90;;;;;;5095073;28;20221;-71
2021/10/14 06:09:09;;;;;;;17.90;3.83;;;20.00;99.90;;;;;;5095288;28;20237;-71
2021/10/14 06:11:36;;;;;;;20.27;4.10;;;20.50;99.90;;;;;;5089503;28;20186;-71
2021/10/14 06:14:03;;;;;;;17.03;3.97;;;20.80;99.90;;;;;;5093527;28;20182;-71
2021/10/14 06:16:31;;;;;;;16.83;3.70;;;21.20;99.90;;;;;;5087021;28;20176;-72
2021/10/14 06:18:58;;;;;;;15.00;3.40;;;21.70;99.90;;;;;;5092072;28;20235;-71
2021/10/14 06:21:25;;;;;;;16.07;2.70;;;21.50;99.90;;;;;;5089847;28;20182;-71
2021/10/14 06:23:53;;;;;;;13.97;2.73;;;21.50;99.90;;;;;;5085296;28;20201;-72
2021/10/14 06:26:20;;;;;;;12.80;2.87;;;22.10;99.90;;;;;;5077587;28;20314;-72
2021/10/14 06:28:48;;;;;;;16.10;3.43;;;23.00;99.90;;;;;;5088567;28;20186;-69
2021/10/14 06:31:15;;;;;;;13.10;3.67;;;23.90;99.90;;;;;;5076694;28;20179;-70
2021/10/14 06:33:42;;;;;;;17.17;3.50;;;23.30;99.90;;;;;;5082218;28;20265;-72
2021/10/14 06:36:10;;;;;;;14.40;4.70;;;22.20;99.90;;;;;;5092718;28;20175;-69
2021/10/14 06:38:37;;;;;;;21.87;3.53;;;21.70;99.90;;;;;;5086604;28;20630;-72
2021/10/14 06:41:05;;;;;;;30.23;5.53;;;21.20;99.90;;;;;;5093266;28;20178;-74
2021/10/14 06:43:32;;;;;;;36.63;6.13;;;20.90;99.90;;;;;;5091927;28;20186;-75
2021/10/14 06:45:59;;;;;;;47.93;6.93;;;20.70;99.90;;;;;;5094359;28;20268;-71
2021/10/14 06:48:27;;;;;;;44.13;7.80;;;20.80;99.90;;;;;;5093573;28;20651;-72
2021/10/14 06:50:54;;;;;;;40.60;7.27;;;21.10;99.90;;;;;;5088092;28;20199;-70
2021/10/14 06:53:21;;;;;;;41.13;7.73;;;20.80;99.90;;;;;;5074827;28;20175;-71
2021/10/14 06:55:49;;;;;;;41.80;7.60;;;20.70;99.90;;;;;;5082145;28;20514;-74
2021/10/14 06:58:17;;;;;;;56.17;7.93;;;20.50;99.90;;;;;;5091584;28;20182;-72
2021/10/14 07:00:44;;;;;;;44.47;7.23;;;20.50;99.90;;;;;;5089863;28;20194;-72
2021/10/14 07:03:12;;;;;;;45.37;6.83;;;20.40;99.90;;;;;;5089319;28;20255;-74
2021/10/14 07:05:39;;;;;;;35.83;6.73;;;20.30;99.90;;;;;;5093088;28;20335;-80
2021/10/14 07:08:06;;;;;;;41.37;7.23;;;20.30;99.90;;;;;;5085757;28;20176;-76
2021/10/14 07:10:33;;;;;;;41.00;6.03;;;20.30;99.90;;;;;;5090490;28;20225;-73
2021/10/14 07:13:08;;;;;;;35.33;5.70;;;20.10;99.90;;;;;;5090708;28;20220;-79
2021/10/14 07:15:36;;;;;;;32.93;6.47;;;20.10;99.90;;;;;;5092843;28;20181;-75
2021/10/14 07:18:03;;;;;;;40.73;6.57;;;20.10;99.90;;;;;;5092593;28;20178;-79
2021/10/14 07:20:31;;;;;;;32.53;5.60;;;20.00;99.90;;;;;;5092393;28;20553;-76
2021/10/14 07:22:58;;;;;;;35.43;6.37;;;19.90;99.90;;;;;;5094504;28;20570;-79
2021/10/14 07:25:26;;;;;;;37.37;6.30;;;19.90;99.90;;;;;;5088700;28;20205;-75
2021/10/14 07:27:53;;;;;;;48.40;6.67;;;19.90;99.90;;;;;;5075389;28;20219;-70
2021/10/14 07:30:20;;;;;;;51.03;7.67;;;19.80;99.90;;;;;;5094241;28;20663;-71
2021/10/14 07:32:48;;;;;;;41.67;6.77;;;19.80;99.90;;;;;;5084392;28;20192;-76
2021/10/14 07:35:15;;;;;;;38.03;7.20;;;19.70;99.90;;;;;;5087559;28;20548;-72
2021/10/14 07:37:42;;;;;;;41.27;6.83;;;19.60;99.90;;;;;;5093279;28;20186;-75
2021/10/14 07:40:10;;;;;;;43.40;6.93;;;19.60;99.90;;;;;;5093119;28;20193;-72
2021/10/14 07:42:37;;;;;;;38.43;6.67;;;19.50;99.90;;;;;;5086721;28;20183;-73
2021/10/14 07:45:05;;;;;;;40.90;8.33;;;19.60;99.90;;;;;;5087371;28;20201;-74
2021/10/14 07:47:32;;;;;;;44.67;6.63;;;19.60;99.90;;;;;;5092418;28;20178;-72
2021/10/14 07:50:00;;;;;;;34.43;6.27;;;19.60;99.90;;;;;;5092197;28;20524;-70
2021/10/14 07:52:27;;;;;;;36.50;6.07;;;19.50;99.90;;;;;;5082268;28;20186;-72
2021/10/14 07:54:54;;;;;;;33.53;6.27;;;19.50;99.90;;;;;;5078740;28;20210;-71
2021/10/14 07:57:22;;;;;;;30.83;6.00;;;19.40;99.90;;;;;;5092587;28;20190;-71
2021/10/14 07:59:49;;;;;;;32.77;6.07;;;19.40;99.90;;;;;;5092994;28;20178;-73
2021/10/14 08:02:16;;;;;;;37.97;6.60;;;19.40;99.90;;;;;;5089094;28;20174;-74
2021/10/14 08:04:45;;;;;;;52.27;7.67;;;19.50;99.90;;;;;;5082968;28;20253;-72
2021/10/14 08:07:13;;;;;;;45.97;7.53;;;19.50;99.90;;;;;;5092476;28;20206;-71
2021/10/14 08:09:40;;;;;;;58.57;8.10;;;19.50;99.90;;;;;;5091847;28;20178;-70
2021/10/14 08:12:08;;;;;;;49.17;7.43;;;19.40;99.90;;;;;;5092323;28;20226;-74
2021/10/14 08:14:35;;;;;;;46.17;7.43;;;19.40;99.90;;;;;;5081411;28;20179;-75
2021/10/14 08:17:02;;;;;;;52.57;8.57;;;19.40;99.90;;;;;;5088268;28;20182;-80
2021/10/14 08:19:30;;;;;;;57.73;9.20;;;19.40;99.90;;;;;;5086592;28;20186;-75
2021/10/14 08:21:57;;;;;;;60.33;8.27;;;19.40;99.90;;;;;;5087023;28;20205;-79
2021/10/14 08:24:25;;;;;;;48.30;8.40;;;19.30;99.90;;;;;;5086844;28;20179;-74
2021/10/14 08:26:52;;;;;;;51.40;7.73;;;19.30;99.90;;;;;;5092559;28;20246;-73
2021/10/14 08:29:19;;;;;;;64.13;9.60;;;19.20;99.90;;;;;;5078305;28;20227;-71
2021/10/14 08:31:47;;;;;;;45.53;8.00;;;19.20;99.90;;;;;;5078135;28;20274;-71
2021/10/14 08:34:14;;;;;;;55.33;18.80;;;19.20;99.90;;;;;;5090507;28;20253;-73
2021/10/14 08:36:43;;;;;;;55.83;8.73;;;19.20;99.90;;;;;;5083170;28;20201;-72
2021/10/14 08:39:10;;;;;;;65.40;8.83;;;19.20;99.90;;;;;;5090051;28;20178;-76
2021/10/14 08:41:39;;;;;;;57.60;9.40;;;19.20;99.90;;;;;;5091620;28;20189;-76
2021/10/14 08:44:07;;;;;;;47.70;7.23;;;19.20;99.90;;;;;;5091918;28;20239;-74
2021/10/14 08:46:35;;;;;;;52.30;9.03;;;19.20;99.90;;;;;;5091287;28;20217;-71
2021/10/14 08:49:07;;;;;;;48.73;7.43;;;19.20;99.90;;;;;;5092345;28;20265;-73
2021/10/14 08:51:35;;;;;;;41.50;6.90;;;19.20;99.90;;;;;;5081526;28;20516;-71
2021/10/14 08:54:03;;;;;;;45.93;7.37;;;19.20;99.90;;;;;;5087705;28;20223;-71
2021/10/14 08:56:33;;;;;;;52.63;8.43;;;19.10;99.90;;;;;;5091059;28;20245;-70
2021/10/14 08:59:01;;;;;;;43.70;7.53;;;19.10;99.90;;;;;;5091766;28;20182;-70
2021/10/14 09:01:32;;;;;;;58.93;9.27;;;19.10;99.90;;;;;;5081464;28;20194;-70
2021/10/14 09:04:20;;;;;;;54.63;9.87;;;19.20;99.90;;;;;;5088094;28;20182;-70
2021/10/14 09:06:54;;;;;;;56.50;8.43;;;19.10;99.90;;;;;;5090691;28;20210;-69
2021/10/14 09:09:35;;;;;;;49.57;8.93;;;19.10;99.90;;;;;;5089010;28;20673;-68
2021/10/14 09:12:07;;;;;;;47.23;7.80;;;19.10;99.90;;;;;;5086963;28;20706;-68
2021/10/14 09:14:51;;;;;;;53.27;8.77;;;19.10;99.90;;;;;;5088944;28;20577;-70
2021/10/14 09:17:18;;;;;;;44.67;7.43;;;19.10;99.90;;;;;;5083215;28;20205;-72
2021/10/14 09:19:45;;;;;;;49.60;8.67;;;19.10;99.90;;;;;;5091730;28;20198;-70
2021/10/14 09:22:17;;;;;;;46.90;7.47;;;19.00;99.90;;;;;;5091541;28;20175;-70
2021/10/14 09:24:44;;;;;;;43.37;7.33;;;19.00;99.90;;;;;;5091047;28;20221;-70
2021/10/14 09:27:18;;;;;;;45.20;7.37;;;19.10;99.90;;;;;;5090480;28;20218;-70
2021/10/14 09:29:45;;;;;;;42.93;7.37;;;19.10;99.90;;;;;;5085265;28;20205;-72
2021/10/14 09:32:15;;;;;;;40.20;7.03;;;19.10;99.90;;;;;;5092239;28;20182;-70
2021/10/14 09:34:49;;;;;;;49.73;8.33;;;19.10;99.90;;;;;;5091583;28;20663;-70
2021/10/14 09:37:16;;;;;;;55.73;8.77;;;19.10;99.90;;;;;;5080944;28;20171;-74
2021/10/14 09:39:58;;;;;;;59.57;10.63;;;19.00;99.90;;;;;;5091832;28;20207;-72
2021/10/14 09:42:59;;;;;;;57.13;9.33;;;19.00;99.90;;;;;;5079607;28;20532;-71
2021/10/14 09:45:38;;;;;;;45.47;9.20;;;19.00;99.90;;;;;;5091874;28;20237;-71
2021/10/14 09:48:07;;;;;;;47.90;7.70;;;18.90;99.90;;;;;;5094913;28;20181;-71
2021/10/14 09:50:40;;;;;;;51.77;10.17;;;18.90;99.90;;;;;;5089814;28;20183;-73
2021/10/14 09:53:23;;;;;;;56.07;9.87;;;18.90;99.90;;;;;;5073812;28;20241;-72
2021/10/14 09:55:52;;;;;;;53.37;8.03;;;18.90;99.90;;;;;;5090535;28;20684;-73
2021/10/14 09:58:20;;;;;;;53.97;9.67;;;18.90;99.90;;;;;;5094822;28;20234;-69
2021/10/14 10:00:48;;;;;;;52.03;7.13;;;18.90;99.90;;;;;;5095422;28;20200;-69
2021/10/14 10:03:27;;;;;;;52.93;8.27;;;18.90;99.90;;;;;;5095454;28;20181;-70
2021/10/14 10:05:55;;;;;;;59.10;7.80;;;18.90;99.90;;;;;;5088194;28;20191;-69
2021/10/14 10:08:28;;;;;;;54.77;9.97;;;18.80;99.90;;;;;;5087393;28;20225;-70
2021/10/14 10:11:14;;;;;;;48.03;7.57;;;18.80;99.90;;;;;;5085794;28;20220;-70
2021/10/14 10:13:53;;;;;;;45.10;8.70;;;18.80;99.90;;;;;;5094434;28;20247;-71
2021/10/14 10:16:23;;;;;;;49.50;8.07;;;18.80;99.90;;;;;;5085993;28;20167;-70
2021/10/14 10:18:54;;;;;;;49.97;8.23;;;18.80;99.90;;;;;;5086549;28;20190;-70
2021/10/14 10:21:40;;;;;;;47.67;7.57;;;18.80;99.90;;;;;;5089425;28;20765;-71
2021/10/14 10:24:27;;;;;;;49.37;7.77;;;18.70;99.90;;;;;;5094877;28;20679;-71
2021/10/14 10:26:56;;;;;;;53.53;8.73;;;18.70;99.90;;;;;;5079062;28;20229;-71
2021/10/14 10:29:29;;;;;;;49.47;7.40;;;18.80;99.90;;;;;;5086152;28;20186;-71
2021/10/14 10:31:57;;;;;;;42.07;7.27;;;18.70;99.90;;;;;;5094627;28;20528;-71
2021/10/14 10:34:32;;;;;;;51.63;8.17;;;18.70;99.90;;;;;;5094878;28;20217;-69
2021/10/14 10:37:17;;;;;;;49.40;7.33;;;18.70;99.90;;;;;;5094181;28;20579;-71
2021/10/14 10:39:56;;;;;;;57.53;17.27;;;18.70;99.90;;;;;;5092827;28;20343;-71
2021/10/14 10:42:36;;;;;;;62.50;24.07;;;18.70;99.90;;;;;;5082809;28;20581;-70
2021/10/14 10:45:16;;;;;;;54.97;8.33;;;18.70;99.90;;;;;;5094393;28;20198;-71
2021/10/14 10:47:56;;;;;;;38.83;7.30;;;18.70;99.90;;;;;;5091027;28;20210;-71
2021/10/14 10:50:41;;;;;;;33.17;6.60;;;18.60;99.90;;;;;;5087818;28;20179;-71
2021/10/14 10:53:10;;;;;;;41.43;7.33;;;18.60;99.90;;;;;;5080126;28;20171;-71
2021/10/14 10:55:46;;;;;;;47.00;7.63;;;18.70;99.90;;;;;;5093990;28;20594;-71
2021/10/14 10:58:16;;;;;;;39.33;7.07;;;18.70;99.90;;;;;;5092576;28;20184;-71
2021/10/14 11:00:46;;;;;;;35.43;6.67;;;18.60;99.90;;;;;;5087996;28;20631;-71
2021/10/14 11:03:22;;;;;;;38.97;7.13;;;18.60;99.90;;;;;;5078405;28;20194;-71
2021/10/14 11:05:55;;;;;;;51.50;8.43;;;18.60;99.90;;;;;;5093445;28;20205;-70
2021/10/14 11:08:30;;;;;;;45.73;7.47;;;18.60;99.90;;;;;;5089956;28;20216;-71
2021/10/14 11:11:03;;;;;;;47.47;9.63;;;18.60;99.90;;;;;;5080975;28;20204;-71
2021/10/14 11:13:33;;;;;;;47.23;18.00;;;18.60;99.90;;;;;;5093334;28;20256;-71
2021/10/14 11:16:01;;;;;;;42.10;10.50;;;18.50;99.90;;;;;;5094088;28;20182;-71
2021/10/14 11:18:30;;;;;;;51.67;7.40;;;18.60;99.90;;;;;;5084748;28;20179;-71
2021/10/14 11:21:01;;;;;;;44.50;6.50;;;18.50;99.90;;;;;;5092884;28;20222;-72
2021/10/14 11:23:30;;;;;;;37.20;7.13;;;18.50;99.90;;;;;;5093873;28;20178;-71
2021/10/14 11:26:05;;;;;;;39.37;7.67;;;18.50;99.90;;;;;;5093553;28;20295;-71
2021/10/14 11:28:50;;;;;;;30.20;6.27;;;18.40;99.90;;;;;;5093335;28;20174;-71
2021/10/14 11:31:29;;;;;;;33.70;7.40;;;18.40;99.90;;;;;;5093720;28;20169;-70
2021/10/14 11:34:04;;;;;;;51.40;8.83;;;18.40;99.90;;;;;;5091059;28;20516;-71
2021/10/14 11:36:32;;;;;;;46.83;8.03;;;18.40;99.90;;;;;;5093226;28;20234;-71
2021/10/14 11:39:04;;;;;;;47.13;7.63;;;18.30;99.90;;;;;;5081378;28;20268;-71
2021/10/14 11:41:32;;;;;;;39.03;7.40;;;18.30;99.90;;;;;;5084299;28;20178;-71
2021/10/14 11:44:01;;;;;;;41.77;7.87;;;18.20;99.90;;;;;;5093038;28;20270;-71
2021/10/14 11:46:31;;;;;;;36.80;7.30;;;18.20;99.90;;;;;;5084425;28;20210;-71
2021/10/14 11:49:04;;;;;;;43.93;7.63;;;18.10;99.90;;;;;;5093495;28;20268;-71
2021/10/14 11:51:32;;;;;;;41.23;7.93;;;18.10;99.90;;;;;;5087128;28;20232;-71
2021/10/14 11:54:11;;;;;;;43.63;7.93;;;18.10;99.90;;;;;;5080508;28;20175;-71
2021/10/14 11:56:45;;;;;;;40.87;7.13;;;18.10;99.90;;;;;;5093028;28;20545;-71
2021/10/14 11:59:14;;;;;;;49.67;7.33;;;18.00;99.90;;;;;;5091350;28;20179;-71
2021/10/14 12:02:15;;;;;;;43.77;7.50;;;18.00;99.90;;;;;;5081395;28;20281;-74
2021/10/14 12:04:56;;;;;;;44.60;7.43;;;18.00;99.90;;;;;;5082309;28;20274;-72
2021/10/14 12:07:28;;;;;;;41.73;7.40;;;18.00;99.90;;;;;;5092815;28;20664;-70
2021/10/14 12:09:57;;;;;;;41.20;8.20;;;18.00;99.90;;;;;;5072337;28;20187;-71
2021/10/14 12:12:27;;;;;;;46.03;7.97;;;18.00;99.90;;;;;;5087780;28;20630;-72
2021/10/14 12:15:07;;;;;;;43.57;7.50;;;18.10;99.90;;;;;;5089219;28;20206;-70
2021/10/14 12:17:45;;;;;;;30.10;6.90;;;18.10;99.90;;;;;;5092900;28;20580;-70
2021/10/14 12:20:14;;;;;;;43.13;7.83;;;18.10;99.90;;;;;;5086237;28;20183;-70
2021/10/14 12:22:43;;;;;;;45.43;7.80;;;18.00;99.90;;;;;;5079035;28;20663;-70
2021/10/14 12:25:11;;;;;;;41.50;7.20;;;18.00;99.90;;;;;;5092820;28;20179;-70
2021/10/14 12:27:46;;;;;;;44.23;7.60;;;18.00;99.90;;;;;;5091808;28;20542;-70
2021/10/14 12:30:25;;;;;;;48.50;9.07;;;18.00;99.90;;;;;;5092101;28;20238;-70
2021/10/14 12:32:55;;;;;;;38.03;6.57;;;18.00;99.90;;;;;;5078928;28;20694;-69
2021/10/14 12:35:28;;;;;;;40.90;6.27;;;18.00;99.90;;;;;;5092385;28;20179;-70
2021/10/14 12:38:15;;;;;;;39.97;6.80;;;18.00;99.90;;;;;;5084878;28;20605;-71
2021/10/14 12:41:02;;;;;;;38.43;8.83;;;18.00;99.90;;;;;;5092529;28;20188;-70
2021/10/14 12:43:43;;;;;;;34.43;7.30;;;18.00;99.90;;;;;;5092213;28;20177;-70
2021/10/14 12:46:33;;;;;;;25.83;6.27;;;17.90;99.90;;;;;;5092488;28;20193;-71
2021/10/14 12:51:53;;;;;;;36.97;7.43;;;17.90;99.90;;;;;;5078860;28;20175;-70